createdAt,value
2022-09-07T00:00:08.368Z,95290.31
2022-09-07T00:02:34.762Z,95285.19
2022-09-07T00:05:01.146Z,95292.47
2022-09-07T00:07:27.503Z,95287.03
2022-09-07T00:09:53.924Z,95281.91
2022-09-07T00:12:20.479Z,95280.50
2022-09-07T00:14:46.833Z,95264.13
2022-09-07T00:17:13.252Z,95263.75
2022-09-07T00:19:39.615Z,95265.03
2022-09-07T00:22:06.001Z,95262.88
2022-09-07T00:24:32.542Z,95265.59
2022-09-07T00:26:58.899Z,95274.53
2022-09-07T00:29:25.265Z,95271.25
2022-09-07T00:31:51.748Z,95275.25
2022-09-07T00:34:18.187Z,95271.75
2022-09-07T00:36:44.546Z,95267.59
2022-09-07T00:39:10.903Z,95270.19
2022-09-07T00:41:37.257Z,95270.38
2022-09-07T00:44:03.625Z,95268.19
2022-09-07T00:46:30.070Z,95265.59
2022-09-07T00:48:56.470Z,95279.22
2022-09-07T00:51:22.828Z,95273.44
2022-09-07T00:53:49.169Z,95266.91
2022-09-07T00:56:15.530Z,95267.06
2022-09-07T00:58:41.999Z,95251.81
2022-09-07T01:01:08.365Z,95260.72
2022-09-07T01:03:34.757Z,95256.56
2022-09-07T01:06:01.259Z,95269.28
2022-09-07T01:08:27.620Z,95259.44
2022-09-07T01:10:53.987Z,95264.94
2022-09-07T01:13:20.353Z,95264.16
2022-09-07T01:15:46.772Z,95256.91
2022-09-07T01:18:13.161Z,95254.72
2022-09-07T01:20:39.520Z,95256.19
2022-09-07T01:23:05.896Z,95256.19
2022-09-07T01:25:32.254Z,95252.50
2022-09-07T01:27:58.640Z,95253.59
2022-09-07T01:30:25.095Z,95260.69
2022-09-07T01:32:51.446Z,95251.44
2022-09-07T01:35:17.848Z,95249.31
2022-09-07T01:37:44.208Z,95255.47
2022-09-07T01:40:10.646Z,95249.84
2022-09-07T01:42:37.161Z,95256.19
2022-09-07T01:45:03.588Z,95258.00
2022-09-07T01:47:29.946Z,95256.91
2022-09-07T01:49:56.327Z,95262.16
2022-09-07T01:52:22.671Z,95253.97
2022-09-07T01:54:49.042Z,95261.19
2022-09-07T01:57:15.402Z,95261.03
2022-09-07T01:59:41.766Z,95251.78
2022-09-07T02:02:08.198Z,95248.34
2022-09-07T02:04:34.620Z,95252.16
2022-09-07T02:07:00.976Z,95244.28
2022-09-07T02:09:27.359Z,95249.25
2022-09-07T02:11:53.715Z,95251.41
2022-09-07T02:14:20.076Z,95256.50
2022-09-07T02:16:46.425Z,95255.97
2022-09-07T02:19:12.803Z,95252.34
2022-09-07T02:21:39.501Z,95259.25
2022-09-07T02:24:05.865Z,95260.34
2022-09-07T02:26:32.434Z,95252.88
2022-09-07T02:28:58.793Z,95238.91
2022-09-07T02:31:25.194Z,95243.66
2022-09-07T02:33:51.599Z,95237.63
2022-09-07T02:36:17.951Z,95234.88
2022-09-07T02:38:44.323Z,95233.59
2022-09-07T02:41:10.782Z,95239.06
2022-09-07T02:43:37.142Z,95237.63
2022-09-07T02:46:03.604Z,95242.69
2022-09-07T02:48:30.170Z,95237.44
2022-09-07T02:50:56.589Z,95240.53
2022-09-07T02:53:23.002Z,95244.19
2022-09-07T02:55:49.386Z,95244.75
2022-09-07T02:58:15.734Z,95246.19
2022-09-07T03:00:42.104Z,95239.06
2022-09-07T03:03:08.610Z,95236.59
2022-09-07T03:05:34.985Z,95235.47
2022-09-07T03:08:01.351Z,95234.38
2022-09-07T03:10:27.732Z,95233.25
2022-09-07T03:12:54.112Z,95237.03
2022-09-07T03:15:20.468Z,95232.38
2022-09-07T03:17:46.825Z,95236.72
2022-09-07T03:20:13.226Z,95236.91
2022-09-07T03:22:39.612Z,95226.34
2022-09-07T03:25:06.024Z,95225.47
2022-09-07T03:27:32.385Z,95229.31
2022-09-07T03:29:58.750Z,95226.34
2022-09-07T03:32:25.139Z,95225.50
2022-09-07T03:34:51.528Z,95213.31
2022-09-07T03:37:17.935Z,95212.97
2022-09-07T03:39:44.359Z,95208.97
2022-09-07T03:42:10.790Z,95203.06
2022-09-07T03:44:37.162Z,95198.88
2022-09-07T03:47:03.569Z,95198.75
2022-09-07T03:49:29.953Z,95190.56
2022-09-07T03:51:56.315Z,95195.44
2022-09-07T03:54:22.685Z,95194.41
2022-09-07T03:56:49.115Z,95200.38
2022-09-07T03:59:15.466Z,95198.44
2022-09-07T04:01:41.904Z,95184.59
2022-09-07T04:04:08.367Z,95193.66
2022-09-07T04:06:34.754Z,95187.44
2022-09-07T04:09:01.114Z,95179.47
2022-09-07T04:11:27.486Z,95189.47
2022-09-07T04:13:53.955Z,95187.34
2022-09-07T04:16:20.445Z,95188.28
2022-09-07T04:18:46.876Z,95194.53
2022-09-07T04:21:13.271Z,95187.88
2022-09-07T04:23:39.660Z,95185.84
2022-09-07T04:26:06.012Z,95188.19
2022-09-07T04:28:32.441Z,95188.03
2022-09-07T04:30:59.130Z,95185.41
2022-09-07T04:33:25.568Z,95186.13
2022-09-07T04:35:51.955Z,95182.09
2022-09-07T04:38:18.340Z,95181.06
2022-09-07T04:40:44.702Z,95175.38
2022-09-07T04:43:11.129Z,95176.53
2022-09-07T04:45:37.639Z,95168.84
2022-09-07T04:48:04.101Z,95167.75
2022-09-07T04:50:30.457Z,95159.72
2022-09-07T04:52:56.843Z,95165.94
2022-09-07T04:55:23.205Z,95169.13
2022-09-07T04:57:49.579Z,95163.34
2022-09-07T05:00:15.930Z,95159.91
2022-09-07T05:02:42.352Z,95166.44
2022-09-07T05:05:08.745Z,95175.16
2022-09-07T05:07:35.167Z,95174.03
2022-09-07T05:10:02.577Z,95162.47
2022-09-07T05:12:28.948Z,95166.81
2022-09-07T05:14:55.300Z,95167.53
2022-09-07T05:17:21.683Z,95170.78
2022-09-07T05:19:48.034Z,95169.34
2022-09-07T05:22:14.388Z,95177.69
2022-09-07T05:24:40.756Z,95181.28
2022-09-07T05:27:07.130Z,95187.63
2022-09-07T05:32:19.902Z,95190.56
2022-09-07T05:34:48.554Z,95194.91
2022-09-07T05:37:16.135Z,95197.81
2022-09-07T05:39:42.627Z,95202.53
2022-09-07T05:42:09.005Z,95203.06
2022-09-07T05:47:08.790Z,95201.25
2022-09-07T05:49:35.141Z,95192.72
2022-09-07T05:52:01.513Z,95186.38
2022-09-07T05:54:27.876Z,95192.72
2022-09-07T05:56:54.257Z,95196.91
2022-09-07T05:59:20.602Z,95188.38
2022-09-07T06:01:46.995Z,95190.34
2022-09-07T06:04:13.422Z,95200.34
2022-09-07T06:06:39.777Z,95198.53
2022-09-07T06:09:06.134Z,95197.63
2022-09-07T06:11:32.499Z,95205.06
2022-09-07T06:13:58.908Z,95206.31
2022-09-07T06:16:25.292Z,95210.66
2022-09-07T06:18:51.696Z,95207.78
2022-09-07T06:21:18.084Z,95200.53
2022-09-07T06:23:44.472Z,95208.31
2022-09-07T06:26:10.831Z,95207.97
2022-09-07T06:28:37.185Z,95204.50
2022-09-07T06:31:03.582Z,95206.84
2022-09-07T06:33:29.963Z,95206.00
2022-09-07T06:35:56.323Z,95212.28
2022-09-07T06:38:22.707Z,95212.47
2022-09-07T06:40:49.261Z,95212.88
2022-09-07T06:43:15.623Z,95219.56
2022-09-07T06:45:42.045Z,95222.13
2022-09-07T06:48:08.407Z,95213.56
2022-09-07T06:50:34.769Z,95211.22
2022-09-07T06:55:47.467Z,95207.41
2022-09-07T06:58:13.825Z,95209.78
2022-09-07T07:00:40.195Z,95203.97
2022-09-07T07:03:06.671Z,95204.88
2022-09-07T07:05:33.111Z,95209.94
2022-09-07T07:07:59.481Z,95202.31
2022-09-07T07:10:25.839Z,95201.25
2022-09-07T07:12:52.198Z,95207.06
2022-09-07T07:15:18.549Z,95208.69
2022-09-07T07:17:48.041Z,95210.31
2022-09-07T07:20:18.363Z,95210.13
2022-09-07T07:22:46.817Z,95214.13
2022-09-07T07:25:13.407Z,95212.13
2022-09-07T07:27:39.781Z,95213.41
2022-09-07T07:30:06.146Z,95210.69
2022-09-07T07:32:32.667Z,95208.50
2022-09-07T07:34:58.991Z,95207.75
2022-09-07T07:37:28.200Z,95206.69
2022-09-07T07:42:41.010Z,95200.69
2022-09-07T07:47:53.643Z,95191.44
2022-09-07T07:50:35.249Z,95198.72
2022-09-07T07:55:47.948Z,95193.66
2022-09-07T07:58:14.276Z,95187.44
2022-09-07T08:00:53.702Z,95170.78
2022-09-07T08:03:20.896Z,95166.44
2022-09-07T08:05:47.225Z,95166.06
2022-09-07T08:08:13.538Z,95161.00
2022-09-07T08:10:39.863Z,95164.25
2022-09-07T08:13:06.224Z,95158.06
2022-09-07T08:15:32.592Z,95168.78
2022-09-07T08:17:58.927Z,95164.97
2022-09-07T08:20:25.236Z,95159.19
2022-09-07T08:22:51.567Z,95159.53
2022-09-07T08:25:17.900Z,95158.81
2022-09-07T08:27:44.228Z,95158.44
2022-09-07T08:30:10.549Z,95162.06
2022-09-07T08:32:36.875Z,95163.72
2022-09-07T08:35:03.190Z,95164.97
2022-09-07T08:37:29.507Z,95163.53
2022-09-07T08:39:55.887Z,95167.13
2022-09-07T08:42:22.266Z,95159.72
2022-09-07T08:44:48.591Z,95155.00
2022-09-07T08:47:14.955Z,95149.19
2022-09-07T08:49:41.288Z,95147.38
2022-09-07T08:52:07.723Z,95154.47
2022-09-07T08:54:34.055Z,95163.88
2022-09-07T08:59:46.689Z,95157.72
2022-09-07T09:02:30.096Z,95158.06
2022-09-07T09:07:44.458Z,95150.25
2022-09-07T09:10:10.793Z,95146.81
2022-09-07T09:12:37.920Z,95151.88
2022-09-07T09:15:04.366Z,95147.53
2022-09-07T09:17:30.686Z,95150.06
2022-09-07T09:19:56.997Z,95144.63
2022-09-07T09:22:23.460Z,95148.81
2022-09-07T09:24:49.811Z,95132.50
2022-09-07T09:27:16.160Z,95137.41
2022-09-07T09:29:42.483Z,95132.50
2022-09-07T09:32:08.813Z,95135.41
2022-09-07T09:34:35.276Z,95134.69
2022-09-07T09:37:01.595Z,95133.97
2022-09-07T09:39:28.027Z,95130.34
2022-09-07T09:41:54.366Z,95129.94
2022-09-07T09:44:20.683Z,95123.59
2022-09-07T09:46:47.186Z,95120.50
2022-09-07T09:49:13.529Z,95116.50
2022-09-07T09:54:26.147Z,95115.41
2022-09-07T09:56:52.486Z,95107.25
2022-09-07T10:04:51.418Z,95095.25
2022-09-07T10:07:17.729Z,95092.72
2022-09-07T10:09:44.045Z,95092.19
2022-09-07T10:12:10.362Z,95090.56
2022-09-07T10:14:36.695Z,95085.28
2022-09-07T10:17:03.018Z,95088.38
2022-09-07T10:19:29.330Z,95081.84
2022-09-07T10:21:55.656Z,95078.94
2022-09-07T10:24:21.974Z,95076.97
2022-09-07T10:26:48.302Z,95071.16
2022-09-07T10:29:15.156Z,95082.22
2022-09-07T10:31:41.903Z,95083.66
2022-09-07T10:36:54.537Z,95075.34
2022-09-07T10:39:20.876Z,95072.78
2022-09-07T10:41:47.207Z,95077.13
2022-09-07T10:44:13.527Z,95073.69
2022-09-07T10:49:26.164Z,95070.06
2022-09-07T10:51:52.480Z,95067.34
2022-09-07T10:54:34.285Z,95066.44
2022-09-07T10:57:00.758Z,95056.63
2022-09-07T10:59:27.118Z,95063.50
2022-09-07T11:01:53.727Z,95061.88
2022-09-07T11:04:20.152Z,95054.63
2022-09-07T11:06:46.464Z,95051.19
2022-09-07T11:09:17.302Z,95046.09
2022-09-07T11:14:30.825Z,95047.03
2022-09-07T11:16:57.279Z,95041.19
2022-09-07T11:19:38.992Z,95035.72
2022-09-07T11:22:05.305Z,95025.91
2022-09-07T11:24:31.652Z,95024.44
2022-09-07T11:26:58.000Z,95028.63
2022-09-07T11:29:31.386Z,95021.94
2022-09-07T11:31:57.718Z,95019.38
2022-09-07T11:34:24.386Z,95013.53
2022-09-07T11:36:51.045Z,95013.91
2022-09-07T11:39:17.368Z,95003.88
2022-09-07T11:41:43.691Z,95009.69
2022-09-07T11:44:10.014Z,95000.75
2022-09-07T11:46:36.426Z,94997.13
2022-09-07T11:49:04.603Z,94988.97
2022-09-07T11:51:31.108Z,94984.06
2022-09-07T11:53:57.430Z,94984.06
2022-09-07T11:56:23.741Z,94967.25
2022-09-07T11:58:50.072Z,94968.63
2022-09-07T12:01:16.406Z,94973.13
2022-09-07T12:03:42.926Z,94971.78
2022-09-07T12:06:09.313Z,94966.78
2022-09-07T12:08:35.665Z,94958.22
2022-09-07T12:11:01.987Z,94954.97
2022-09-07T12:13:28.315Z,94957.09
2022-09-07T12:15:54.664Z,94955.19
2022-09-07T12:18:21.044Z,94955.19
2022-09-07T12:20:47.359Z,94940.59
2022-09-07T12:23:13.693Z,94938.78
2022-09-07T12:25:40.054Z,94932.13
2022-09-07T12:28:06.374Z,94926.63
2022-09-07T12:30:32.717Z,94923.75
2022-09-07T12:32:59.145Z,94920.53
2022-09-07T12:35:25.527Z,94907.63
2022-09-07T12:37:51.833Z,94918.03
2022-09-07T12:40:18.172Z,94923.63
2022-09-07T12:42:44.493Z,94918.13
2022-09-07T12:45:10.801Z,94912.09
2022-09-07T12:47:37.133Z,94928.06
2022-09-07T12:50:03.450Z,94932.19
2022-09-07T12:52:31.502Z,94931.38
2022-09-07T12:55:23.609Z,94932.25
2022-09-07T12:57:44.254Z,94929.84
2022-09-07T13:00:10.572Z,94923.53
2022-09-07T13:02:36.982Z,94906.88
2022-09-07T13:05:03.513Z,94905.56
2022-09-07T13:07:29.887Z,94915.22
2022-09-07T13:09:56.284Z,94912.63
2022-09-07T13:15:14.640Z,94900.06
2022-09-07T13:17:46.566Z,94886.47
2022-09-07T13:20:12.894Z,94888.56
2022-09-07T13:22:39.246Z,94886.59
2022-09-07T13:25:05.584Z,94885.66
2022-09-07T13:27:31.913Z,94891.53
2022-09-07T13:29:58.262Z,94879.97
2022-09-07T13:33:08.032Z,94887.75
2022-09-07T13:35:10.948Z,94878.72
2022-09-07T13:37:37.299Z,94882.38
2022-09-07T13:40:03.710Z,94890.81
2022-09-07T13:42:30.090Z,94898.03
2022-09-07T13:44:56.400Z,94897.06
2022-09-07T13:47:22.748Z,94891.38
2022-09-07T13:49:53.622Z,94889.78
2022-09-07T13:52:21.998Z,94888.81
2022-09-07T13:54:48.368Z,94877.91
2022-09-07T13:57:14.859Z,94881.34
2022-09-07T13:59:41.192Z,94889.13
2022-09-07T14:02:07.564Z,94885.28
2022-09-07T14:04:33.895Z,94883.75
2022-09-07T14:07:00.229Z,94877.66
2022-09-07T14:09:26.615Z,94871.78
2022-09-07T14:11:52.980Z,94865.81
2022-09-07T14:14:19.303Z,94864.84
2022-09-07T14:16:45.724Z,94859.56
2022-09-07T14:19:12.120Z,94846.00
2022-09-07T14:21:38.495Z,94842.66
2022-09-07T14:24:04.806Z,94842.97
2022-09-07T14:26:31.156Z,94845.19
2022-09-07T14:28:57.499Z,94840.97
2022-09-07T14:31:23.928Z,94852.13
2022-09-07T14:33:50.338Z,94849.47
2022-09-07T14:36:37.391Z,94843.47
2022-09-07T14:39:04.412Z,94839.84
2022-09-07T14:41:30.974Z,94838.97
2022-09-07T14:43:57.292Z,94844.19
2022-09-07T14:46:23.627Z,94828.53
2022-09-07T14:48:49.964Z,94809.94
2022-09-07T14:51:30.435Z,94801.28
2022-09-07T14:54:01.776Z,94802.97
2022-09-07T14:56:28.101Z,94798.50
2022-09-07T14:58:54.423Z,94793.78
2022-09-07T15:04:07.058Z,94802.59
2022-09-07T15:09:19.764Z,94815.41
2022-09-07T15:11:46.072Z,94813.00
2022-09-07T15:14:12.393Z,94814.53
2022-09-07T15:16:38.726Z,94827.50
2022-09-07T15:19:05.051Z,94842.53
2022-09-07T15:21:31.405Z,94837.25
2022-09-07T15:23:57.741Z,94826.63
2022-09-07T15:29:11.111Z,94825.09
2022-09-07T15:31:50.056Z,94826.25
2022-09-07T15:34:24.494Z,94846.63
2022-09-07T15:36:50.923Z,94840.16
2022-09-07T15:39:17.344Z,94838.41
2022-09-07T15:41:43.700Z,94834.78
2022-09-07T15:44:10.036Z,94818.31
2022-09-07T15:46:37.183Z,94823.88
2022-09-07T15:49:03.630Z,94819.94
2022-09-07T15:54:16.287Z,94839.22
2022-09-07T15:56:43.010Z,94845.22
2022-09-07T15:59:09.980Z,94838.50
2022-09-07T16:01:52.216Z,94847.47
2022-09-07T16:04:19.089Z,94846.56
2022-09-07T16:06:48.135Z,94836.41
2022-09-07T16:09:14.727Z,94842.97
2022-09-07T16:11:41.034Z,94832.81
2022-09-07T16:14:07.356Z,94825.50
2022-09-07T16:19:21.209Z,94825.81
2022-09-07T16:21:47.613Z,94820.88
2022-09-07T16:24:13.943Z,94829.91
2022-09-07T16:26:40.264Z,94828.59
2022-09-07T16:29:06.574Z,94828.25
2022-09-07T16:31:33.184Z,94825.38
2022-09-07T16:33:59.773Z,94817.03
2022-09-07T16:36:26.098Z,94812.84
2022-09-07T16:38:52.432Z,94808.31
2022-09-07T16:41:20.005Z,94819.53
2022-09-07T16:43:46.584Z,94818.31
2022-09-07T16:46:12.909Z,94810.47
2022-09-07T16:48:39.243Z,94809.75
2022-09-07T16:51:05.557Z,94805.75
2022-09-07T16:53:31.870Z,94812.31
2022-09-07T16:55:58.203Z,94807.25
2022-09-07T16:58:39.700Z,94811.94
2022-09-07T17:01:06.081Z,94812.44
2022-09-07T17:03:32.495Z,94814.19
2022-09-07T17:05:58.833Z,94809.84
2022-09-07T17:08:25.133Z,94801.53
2022-09-07T17:10:51.716Z,94794.00
2022-09-07T17:13:18.075Z,94795.53
2022-09-07T17:15:44.394Z,94784.69
2022-09-07T17:18:10.706Z,94778.31
2022-09-07T17:20:37.055Z,94768.22
2022-09-07T17:23:03.388Z,94763.03
2022-09-07T17:25:29.716Z,94742.91
2022-09-07T17:27:56.039Z,94747.22
2022-09-07T17:30:24.780Z,94727.78
2022-09-07T17:32:51.307Z,94732.97
2022-09-07T17:35:17.655Z,94737.31
2022-09-07T17:37:44.003Z,94737.69
2022-09-07T17:40:10.358Z,94734.88
2022-09-07T17:45:23.107Z,94726.91
2022-09-07T17:47:49.441Z,94726.63
2022-09-07T17:50:15.770Z,94731.38
2022-09-07T17:52:45.780Z,94712.41
2022-09-07T17:55:12.505Z,94722.41
2022-09-07T17:57:38.909Z,94725.13
2022-09-07T18:00:12.683Z,94723.47
2022-09-07T18:02:39.177Z,94710.56
2022-09-07T18:05:05.543Z,94707.50
2022-09-07T18:07:32.244Z,94704.13
2022-09-07T18:09:59.202Z,94692.75
2022-09-07T18:12:25.530Z,94693.09
2022-09-07T18:14:51.881Z,94700.94
2022-09-07T18:17:18.273Z,94699.34
2022-09-07T18:19:44.649Z,94701.25
2022-09-07T18:22:10.966Z,94695.38
2022-09-07T18:24:37.308Z,94694.28
2022-09-07T18:27:03.702Z,94687.59
2022-09-07T18:29:33.552Z,94690.63
2022-09-07T18:32:00.532Z,94688.84
2022-09-07T18:34:26.929Z,94692.47
2022-09-07T18:36:54.882Z,94680.84
2022-09-07T18:39:21.342Z,94671.38
2022-09-07T18:41:47.650Z,94661.84
2022-09-07T18:47:00.253Z,94638.47
2022-09-07T18:49:26.580Z,94631.88
2022-09-07T18:54:39.223Z,94631.34
2022-09-07T18:57:06.721Z,94658.72
2022-09-07T18:59:33.279Z,94689.22
2022-09-07T19:02:03.990Z,94726.00
2022-09-07T19:07:18.316Z,94796.78
2022-09-07T19:09:44.648Z,94815.19
2022-09-07T19:12:10.970Z,94843.94
2022-09-07T19:14:37.345Z,94817.38
2022-09-07T19:17:03.741Z,94806.22
2022-09-07T19:19:30.089Z,94817.84
2022-09-07T19:21:56.503Z,94787.72
2022-09-07T19:24:22.830Z,94824.56
2022-09-07T19:26:49.139Z,94820.63
2022-09-07T19:29:15.461Z,94819.53
2022-09-07T19:31:41.808Z,94801.91
2022-09-07T19:34:08.155Z,94805.25
2022-09-07T19:36:34.450Z,94806.53
2022-09-07T19:39:00.763Z,94800.13
2022-09-07T19:41:27.078Z,94795.72
2022-09-07T19:43:53.402Z,94808.94
2022-09-07T19:46:24.685Z,94798.38
2022-09-07T19:48:51.292Z,94793.25
2022-09-07T19:51:17.617Z,94798.69
2022-09-07T19:53:43.930Z,94792.44
2022-09-07T19:56:10.265Z,94794.91
2022-09-07T19:58:36.589Z,94802.44
2022-09-07T20:01:02.963Z,94789.09
2022-09-07T20:03:29.461Z,94785.69
2022-09-07T20:05:55.977Z,94777.13
2022-09-07T20:08:22.301Z,94791.06
2022-09-07T20:10:48.614Z,94790.28
2022-09-07T20:13:14.964Z,94780.91
2022-09-07T20:15:41.278Z,94770.25
2022-09-07T20:18:07.603Z,94764.72
2022-09-07T20:20:33.902Z,94753.94
2022-09-07T20:23:00.225Z,94757.19
2022-09-07T20:25:26.534Z,94758.88
2022-09-07T20:27:52.857Z,94757.13
2022-09-07T20:30:19.306Z,94760.41
2022-09-07T20:32:45.666Z,94761.53
2022-09-07T20:35:11.990Z,94757.69
2022-09-07T20:37:38.309Z,94756.44
2022-09-07T20:40:04.723Z,94759.25
2022-09-07T20:42:31.129Z,94757.16
2022-09-07T20:44:57.458Z,94756.69
2022-09-07T20:47:23.779Z,94749.84
2022-09-07T20:49:50.167Z,94751.06
2022-09-07T20:52:16.527Z,94746.72
2022-09-07T20:54:42.851Z,94749.38
2022-09-07T20:57:09.175Z,94735.22
2022-09-07T20:59:35.499Z,94738.72
2022-09-07T21:02:02.022Z,94725.44
2022-09-07T21:04:28.438Z,94735.22
2022-09-07T21:06:54.770Z,94733.38
2022-09-07T21:09:21.090Z,94724.97
2022-09-07T21:11:50.161Z,94721.91
2022-09-07T21:14:17.673Z,94728.94
2022-09-07T21:16:43.993Z,94713.72
2022-09-07T21:19:10.311Z,94702.84
2022-09-07T21:21:38.590Z,94704.84
2022-09-07T21:24:05.366Z,94696.91
2022-09-07T21:26:31.679Z,94683.16
2022-09-07T21:28:57.990Z,94661.88
2022-09-07T21:31:24.376Z,94669.63
2022-09-07T21:33:50.758Z,94672.59
2022-09-07T21:36:17.087Z,94678.59
2022-09-07T21:38:43.422Z,94695.47
2022-09-07T21:41:09.745Z,94692.34
2022-09-07T21:43:36.054Z,94642.88
2022-09-07T21:46:06.235Z,94614.06
2022-09-07T21:48:34.196Z,94692.13
2022-09-07T21:51:00.512Z,94755.53
2022-09-07T21:53:26.857Z,94795.47
2022-09-07T21:55:53.193Z,94842.91
2022-09-07T21:58:19.522Z,94877.00
2022-09-07T22:00:45.871Z,94892.13
2022-09-07T22:03:12.241Z,94915.16
2022-09-07T22:05:38.565Z,94930.06
2022-09-07T22:08:04.897Z,94912.94
2022-09-07T22:10:31.227Z,94877.06
2022-09-07T22:12:57.560Z,94853.84
2022-09-07T22:15:23.895Z,94860.00
2022-09-07T22:17:50.214Z,94869.28
2022-09-07T22:20:16.547Z,94867.13
2022-09-07T22:22:42.882Z,94858.34
2022-09-07T22:25:09.214Z,94861.13
2022-09-07T22:27:35.536Z,94858.66
2022-09-07T22:30:01.921Z,94855.56
2022-09-07T22:32:28.307Z,94843.06
2022-09-07T22:34:54.612Z,94837.31
2022-09-07T22:37:20.909Z,94827.47
2022-09-07T22:39:47.270Z,94826.91
2022-09-07T22:42:13.597Z,94827.41
2022-09-07T22:44:39.922Z,94852.13
2022-09-07T22:47:06.317Z,94872.25
2022-09-07T22:49:32.639Z,94892.16
2022-09-07T22:51:58.949Z,94901.41
2022-09-07T22:54:25.280Z,94927.34
2022-09-07T22:56:51.598Z,94942.22
2022-09-07T22:59:17.903Z,94970.88
2022-09-07T23:01:44.207Z,94983.00
2022-09-07T23:04:10.656Z,94989.94
2022-09-07T23:06:37.084Z,94989.56
2022-09-07T23:09:03.434Z,94982.34
2022-09-07T23:11:29.748Z,94961.88
2022-09-07T23:13:56.054Z,94970.06
2022-09-07T23:16:22.427Z,94974.53
2022-09-07T23:18:48.801Z,94945.00
2022-09-07T23:21:15.112Z,94936.28
2022-09-07T23:23:41.439Z,94948.28
2022-09-07T23:26:07.746Z,94955.63
2022-09-07T23:28:34.060Z,94960.94
2022-09-07T23:31:00.430Z,94960.19
2022-09-07T23:33:26.832Z,94958.06
2022-09-07T23:35:53.162Z,94975.50
2022-09-07T23:38:19.471Z,94978.34
2022-09-07T23:40:45.790Z,94988.50
2022-09-07T23:43:12.090Z,94993.84
2022-09-07T23:45:38.403Z,94990.41
2022-09-07T23:48:04.716Z,94982.22
2022-09-07T23:50:31.027Z,94972.97
2022-09-07T23:52:57.346Z,94975.50
2022-09-07T23:55:23.658Z,94971.69
2022-09-07T23:57:49.971Z,94967.84
